sensor_id;sensor_type;location;lat;lon;timestamp;P1;durP1;ratioP1;P2;durP2;ratioP2
52854;SDS011;38719;51.418;7.286;2023-02-02T00:01:22;5.65;;;3.15;;
52854;SDS011;38719;51.418;7.286;2023-02-02T00:03:50;8.40;;;3.58;;
52854;SDS011;38719;51.418;7.286;2023-02-02T00:06:18;8.38;;;3.40;;
52854;SDS011;38719;51.418;7.286;2023-02-02T00:08:46;6.22;;;3.33;;
52854;SDS011;38719;51.418;7.286;2023-02-02T00:11:14;10.52;;;3.95;;
52854;SDS011;38719;51.418;7.286;2023-02-02T00:13:44;6.88;;;3.88;;
52854;SDS011;38719;51.418;7.286;2023-02-02T00:19:04;10.13;;;3.88;;
52854;SDS011;38719;51.418;7.286;2023-02-02T00:21:33;9.77;;;4.28;;
52854;SDS011;38719;51.418;7.286;2023-02-02T00:24:03;5.18;;;3.90;;
52854;SDS011;38719;51.418;7.286;2023-02-02T00:26:31;8.63;;;4.60;;
52854;SDS011;38719;51.418;7.286;2023-02-02T00:29:00;9.25;;;4.55;;
52854;SDS011;38719;51.418;7.286;2023-02-02T00:31:28;11.13;;;5.97;;
52854;SDS011;38719;51.418;7.286;2023-02-02T00:33:55;9.82;;;5.90;;
52854;SDS011;38719;51.418;7.286;2023-02-02T00:36:23;18.02;;;6.03;;
52854;SDS011;38719;51.418;7.286;2023-02-02T00:38:50;18.15;;;6.03;;
52854;SDS011;38719;51.418;7.286;2023-02-02T00:41:19;14.18;;;5.85;;
52854;SDS011;38719;51.418;7.286;2023-02-02T00:43:46;7.30;;;4.70;;
52854;SDS011;38719;51.418;7.286;2023-02-02T00:46:35;12.68;;;4.70;;
52854;SDS011;38719;51.418;7.286;2023-02-02T00:49:04;8.25;;;4.50;;
52854;SDS011;38719;51.418;7.286;2023-02-02T00:51:32;8.02;;;4.15;;
52854;SDS011;38719;51.418;7.286;2023-02-02T00:53:59;9.45;;;4.45;;
52854;SDS011;38719;51.418;7.286;2023-02-02T00:56:27;7.55;;;4.10;;
52854;SDS011;38719;51.418;7.286;2023-02-02T00:58:54;7.38;;;3.75;;
52854;SDS011;38719;51.418;7.286;2023-02-02T01:01:22;7.50;;;4.72;;
52854;SDS011;38719;51.418;7.286;2023-02-02T01:03:51;10.48;;;4.28;;
52854;SDS011;38719;51.418;7.286;2023-02-02T01:06:19;7.18;;;3.60;;
52854;SDS011;38719;51.418;7.286;2023-02-02T01:08:46;12.57;;;3.40;;
52854;SDS011;38719;51.418;7.286;2023-02-02T01:11:14;7.47;;;3.25;;
52854;SDS011;38719;51.418;7.286;2023-02-02T01:13:41;7.90;;;3.28;;
52854;SDS011;38719;51.418;7.286;2023-02-02T01:16:10;8.20;;;3.20;;
52854;SDS011;38719;51.418;7.286;2023-02-02T01:18:38;5.88;;;3.40;;
52854;SDS011;38719;51.418;7.286;2023-02-02T01:21:07;6.85;;;3.05;;
52854;SDS011;38719;51.418;7.286;2023-02-02T01:23:36;5.63;;;2.75;;
52854;SDS011;38719;51.418;7.286;2023-02-02T01:26:06;10.13;;;2.80;;
52854;SDS011;38719;51.418;7.286;2023-02-02T01:28:35;7.07;;;3.10;;
52854;SDS011;38719;51.418;7.286;2023-02-02T01:31:06;4.47;;;2.85;;
52854;SDS011;38719;51.418;7.286;2023-02-02T01:33:35;9.50;;;3.08;;
52854;SDS011;38719;51.418;7.286;2023-02-02T01:36:05;12.85;;;3.30;;
52854;SDS011;38719;51.418;7.286;2023-02-02T01:38:36;7.45;;;3.40;;
52854;SDS011;38719;51.418;7.286;2023-02-02T01:41:04;6.63;;;3.50;;
52854;SDS011;38719;51.418;7.286;2023-02-02T01:46:24;8.13;;;3.47;;
52854;SDS011;38719;51.418;7.286;2023-02-02T01:48:54;18.20;;;4.88;;
52854;SDS011;38719;51.418;7.286;2023-02-02T01:51:28;13.77;;;5.00;;
52854;SDS011;38719;51.418;7.286;2023-02-02T01:53:59;9.73;;;4.88;;
52854;SDS011;38719;51.418;7.286;2023-02-02T01:56:30;13.40;;;5.30;;
52854;SDS011;38719;51.418;7.286;2023-02-02T01:59:00;13.00;;;6.03;;
52854;SDS011;38719;51.418;7.286;2023-02-02T02:01:29;12.82;;;5.50;;
52854;SDS011;38719;51.418;7.286;2023-02-02T02:03:57;13.45;;;6.10;;
52854;SDS011;38719;51.418;7.286;2023-02-02T02:06:25;17.95;;;6.75;;
52854;SDS011;38719;51.418;7.286;2023-02-02T02:08:55;17.20;;;6.90;;
52854;SDS011;38719;51.418;7.286;2023-02-02T02:11:25;19.50;;;7.50;;
52854;SDS011;38719;51.418;7.286;2023-02-02T02:13:54;15.73;;;7.47;;
52854;SDS011;38719;51.418;7.286;2023-02-02T02:16:45;16.98;;;7.40;;
52854;SDS011;38719;51.418;7.286;2023-02-02T02:19:27;18.30;;;7.65;;
52854;SDS011;38719;51.418;7.286;2023-02-02T02:22:38;18.58;;;7.57;;
52854;SDS011;38719;51.418;7.286;2023-02-02T02:25:58;21.20;;;8.00;;
52854;SDS011;38719;51.418;7.286;2023-02-02T02:29:02;20.17;;;8.73;;
52854;SDS011;38719;51.418;7.286;2023-02-02T02:32:00;25.70;;;8.48;;
52854;SDS011;38719;51.418;7.286;2023-02-02T02:34:42;15.15;;;7.93;;
52854;SDS011;38719;51.418;7.286;2023-02-02T02:37:18;20.83;;;7.82;;
52854;SDS011;38719;51.418;7.286;2023-02-02T02:39:54;27.48;;;9.43;;
52854;SDS011;38719;51.418;7.286;2023-02-02T02:42:29;24.80;;;8.20;;
52854;SDS011;38719;51.418;7.286;2023-02-02T02:45:00;20.13;;;7.35;;
52854;SDS011;38719;51.418;7.286;2023-02-02T02:47:31;20.23;;;7.25;;
52854;SDS011;38719;51.418;7.286;2023-02-02T02:50:00;24.02;;;6.85;;
52854;SDS011;38719;51.418;7.286;2023-02-02T02:52:28;25.65;;;6.38;;
52854;SDS011;38719;51.418;7.286;2023-02-02T02:54:56;26.98;;;6.40;;
52854;SDS011;38719;51.418;7.286;2023-02-02T02:57:32;24.00;;;6.68;;
52854;SDS011;38719;51.418;7.286;2023-02-02T03:00:12;18.67;;;6.70;;
52854;SDS011;38719;51.418;7.286;2023-02-02T03:02:52;13.77;;;5.82;;
52854;SDS011;38719;51.418;7.286;2023-02-02T03:05:26;19.75;;;5.82;;
52854;SDS011;38719;51.418;7.286;2023-02-02T03:08:02;17.17;;;5.95;;
52854;SDS011;38719;51.418;7.286;2023-02-02T03:10:35;15.90;;;5.82;;
52854;SDS011;38719;51.418;7.286;2023-02-02T03:13:05;17.88;;;6.30;;
52854;SDS011;38719;51.418;7.286;2023-02-02T03:15:34;22.08;;;6.00;;
52854;SDS011;38719;51.418;7.286;2023-02-02T03:18:04;13.43;;;4.93;;
52854;SDS011;38719;51.418;7.286;2023-02-02T03:20:31;13.82;;;4.93;;
52854;SDS011;38719;51.418;7.286;2023-02-02T03:22:59;13.00;;;4.53;;
52854;SDS011;38719;51.418;7.286;2023-02-02T03:25:26;10.75;;;4.22;;
52854;SDS011;38719;51.418;7.286;2023-02-02T03:27:54;11.63;;;3.33;;
52854;SDS011;38719;51.418;7.286;2023-02-02T03:30:21;14.57;;;3.28;;
52854;SDS011;38719;51.418;7.286;2023-02-02T03:32:49;8.93;;;3.42;;
52854;SDS011;38719;51.418;7.286;2023-02-02T03:35:20;13.65;;;3.53;;
52854;SDS011;38719;51.418;7.286;2023-02-02T03:37:48;10.23;;;3.65;;
52854;SDS011;38719;51.418;7.286;2023-02-02T03:40:16;8.95;;;2.92;;
52854;SDS011;38719;51.418;7.286;2023-02-02T03:42:44;5.65;;;2.53;;
52854;SDS011;38719;51.418;7.286;2023-02-02T03:45:12;8.15;;;3.25;;
52854;SDS011;38719;51.418;7.286;2023-02-02T03:47:39;7.60;;;3.50;;
52854;SDS011;38719;51.418;7.286;2023-02-02T03:50:07;5.05;;;3.00;;
52854;SDS011;38719;51.418;7.286;2023-02-02T03:52:37;8.63;;;2.97;;
52854;SDS011;38719;51.418;7.286;2023-02-02T03:55:05;9.63;;;3.85;;
52854;SDS011;38719;51.418;7.286;2023-02-02T03:57:33;6.85;;;3.75;;
52854;SDS011;38719;51.418;7.286;2023-02-02T04:00:00;9.10;;;3.90;;
52854;SDS011;38719;51.418;7.286;2023-02-02T04:02:28;5.43;;;4.05;;
52854;SDS011;38719;51.418;7.286;2023-02-02T04:04:56;12.25;;;4.53;;
52854;SDS011;38719;51.418;7.286;2023-02-02T04:07:23;6.90;;;4.68;;
52854;SDS011;38719;51.418;7.286;2023-02-02T04:09:52;10.05;;;4.63;;
52854;SDS011;38719;51.418;7.286;2023-02-02T04:12:19;8.43;;;5.18;;
52854;SDS011;38719;51.418;7.286;2023-02-02T04:14:47;12.02;;;4.93;;
52854;SDS011;38719;51.418;7.286;2023-02-02T04:17:15;9.32;;;5.70;;
52854;SDS011;38719;51.418;7.286;2023-02-02T04:19:42;10.77;;;6.20;;
52854;SDS011;38719;51.418;7.286;2023-02-02T04:22:10;10.65;;;6.28;;
52854;SDS011;38719;51.418;7.286;2023-02-02T04:24:37;14.82;;;8.02;;
52854;SDS011;38719;51.418;7.286;2023-02-02T04:27:06;11.77;;;7.00;;
52854;SDS011;38719;51.418;7.286;2023-02-02T04:29:33;16.80;;;7.38;;
52854;SDS011;38719;51.418;7.286;2023-02-02T04:32:01;17.98;;;9.20;;
52854;SDS011;38719;51.418;7.286;2023-02-02T04:34:28;20.33;;;9.90;;
52854;SDS011;38719;51.418;7.286;2023-02-02T04:36:56;19.27;;;10.10;;
52854;SDS011;38719;51.418;7.286;2023-02-02T04:39:24;21.88;;;10.85;;
52854;SDS011;38719;51.418;7.286;2023-02-02T04:41:52;20.02;;;10.25;;
52854;SDS011;38719;51.418;7.286;2023-02-02T04:44:20;20.77;;;9.13;;
52854;SDS011;38719;51.418;7.286;2023-02-02T04:46:48;25.15;;;8.98;;
52854;SDS011;38719;51.418;7.286;2023-02-02T04:49:16;24.30;;;8.73;;
52854;SDS011;38719;51.418;7.286;2023-02-02T04:51:43;17.38;;;7.70;;
52854;SDS011;38719;51.418;7.286;2023-02-02T04:54:11;30.45;;;7.57;;
52854;SDS011;38719;51.418;7.286;2023-02-02T04:56:38;21.00;;;8.13;;
52854;SDS011;38719;51.418;7.286;2023-02-02T04:59:06;24.20;;;7.88;;
52854;SDS011;38719;51.418;7.286;2023-02-02T05:01:34;31.02;;;8.02;;
52854;SDS011;38719;51.418;7.286;2023-02-02T05:04:02;28.92;;;6.55;;
52854;SDS011;38719;51.418;7.286;2023-02-02T05:06:30;25.08;;;6.93;;
52854;SDS011;38719;51.418;7.286;2023-02-02T05:08:57;21.83;;;8.02;;
52854;SDS011;38719;51.418;7.286;2023-02-02T05:11:26;17.90;;;6.90;;
52854;SDS011;38719;51.418;7.286;2023-02-02T05:13:54;29.35;;;7.47;;
52854;SDS011;38719;51.418;7.286;2023-02-02T05:16:21;27.80;;;7.22;;
52854;SDS011;38719;51.418;7.286;2023-02-02T05:18:55;23.30;;;6.75;;
52854;SDS011;38719;51.418;7.286;2023-02-02T05:21:24;22.40;;;6.55;;
52854;SDS011;38719;51.418;7.286;2023-02-02T05:23:52;22.70;;;7.05;;
52854;SDS011;38719;51.418;7.286;2023-02-02T05:26:20;16.50;;;6.72;;
52854;SDS011;38719;51.418;7.286;2023-02-02T05:28:49;19.77;;;6.93;;
52854;SDS011;38719;51.418;7.286;2023-02-02T05:31:17;29.30;;;7.78;;
52854;SDS011;38719;51.418;7.286;2023-02-02T05:33:45;18.45;;;7.20;;
52854;SDS011;38719;51.418;7.286;2023-02-02T05:36:14;24.42;;;6.93;;
52854;SDS011;38719;51.418;7.286;2023-02-02T05:38:42;26.17;;;7.63;;
52854;SDS011;38719;51.418;7.286;2023-02-02T05:41:09;19.02;;;7.00;;
52854;SDS011;38719;51.418;7.286;2023-02-02T05:43:37;26.10;;;7.88;;
52854;SDS011;38719;51.418;7.286;2023-02-02T05:46:04;24.88;;;7.32;;
52854;SDS011;38719;51.418;7.286;2023-02-02T05:48:32;18.80;;;7.20;;
52854;SDS011;38719;51.418;7.286;2023-02-02T05:51:00;23.95;;;7.40;;
52854;SDS011;38719;51.418;7.286;2023-02-02T05:53:32;24.88;;;7.68;;
52854;SDS011;38719;51.418;7.286;2023-02-02T05:56:00;18.45;;;6.80;;
52854;SDS011;38719;51.418;7.286;2023-02-02T05:58:28;21.27;;;8.15;;
52854;SDS011;38719;51.418;7.286;2023-02-02T06:00:55;23.00;;;7.70;;
52854;SDS011;38719;51.418;7.286;2023-02-02T06:03:23;25.50;;;7.43;;
52854;SDS011;38719;51.418;7.286;2023-02-02T06:05:50;27.23;;;8.40;;
52854;SDS011;38719;51.418;7.286;2023-02-02T06:08:18;22.05;;;6.97;;
52854;SDS011;38719;51.418;7.286;2023-02-02T06:10:47;34.88;;;8.07;;
52854;SDS011;38719;51.418;7.286;2023-02-02T06:13:14;30.17;;;7.50;;
52854;SDS011;38719;51.418;7.286;2023-02-02T06:15:42;19.95;;;7.25;;
52854;SDS011;38719;51.418;7.286;2023-02-02T06:18:09;21.80;;;7.70;;
52854;SDS011;38719;51.418;7.286;2023-02-02T06:20:37;25.35;;;7.93;;
52854;SDS011;38719;51.418;7.286;2023-02-02T06:23:04;27.77;;;8.25;;
52854;SDS011;38719;51.418;7.286;2023-02-02T06:25:32;26.55;;;7.72;;
52854;SDS011;38719;51.418;7.286;2023-02-02T06:28:01;27.55;;;8.23;;
52854;SDS011;38719;51.418;7.286;2023-02-02T06:30:29;19.05;;;7.03;;
52854;SDS011;38719;51.418;7.286;2023-02-02T06:32:57;24.85;;;7.03;;
52854;SDS011;38719;51.418;7.286;2023-02-02T06:35:25;27.88;;;8.23;;
52854;SDS011;38719;51.418;7.286;2023-02-02T06:37:53;23.95;;;8.05;;
52854;SDS011;38719;51.418;7.286;2023-02-02T06:40:20;24.60;;;7.85;;
52854;SDS011;38719;51.418;7.286;2023-02-02T06:42:53;26.70;;;8.02;;
52854;SDS011;38719;51.418;7.286;2023-02-02T06:45:23;22.25;;;7.55;;
52854;SDS011;38719;51.418;7.286;2023-02-02T06:47:51;30.05;;;8.82;;
52854;SDS011;38719;51.418;7.286;2023-02-02T06:50:19;24.83;;;7.32;;
52854;SDS011;38719;51.418;7.286;2023-02-02T06:52:47;16.20;;;7.32;;
52854;SDS011;38719;51.418;7.286;2023-02-02T06:55:15;17.70;;;7.40;;
52854;SDS011;38719;51.418;7.286;2023-02-02T06:57:42;16.60;;;7.20;;
52854;SDS011;38719;51.418;7.286;2023-02-02T07:00:10;33.33;;;7.10;;
52854;SDS011;38719;51.418;7.286;2023-02-02T07:02:40;14.13;;;5.88;;
52854;SDS011;38719;51.418;7.286;2023-02-02T07:05:11;19.73;;;6.90;;
52854;SDS011;38719;51.418;7.286;2023-02-02T07:07:38;19.67;;;6.65;;
52854;SDS011;38719;51.418;7.286;2023-02-02T07:10:06;17.73;;;6.70;;
52854;SDS011;38719;51.418;7.286;2023-02-02T07:12:54;21.38;;;6.90;;
52854;SDS011;38719;51.418;7.286;2023-02-02T07:15:22;23.58;;;7.40;;
52854;SDS011;38719;51.418;7.286;2023-02-02T07:17:51;26.65;;;7.40;;
52854;SDS011;38719;51.418;7.286;2023-02-02T07:20:20;22.17;;;7.65;;
52854;SDS011;38719;51.418;7.286;2023-02-02T07:22:48;23.75;;;7.22;;
52854;SDS011;38719;51.418;7.286;2023-02-02T07:25:15;25.38;;;7.80;;
52854;SDS011;38719;51.418;7.286;2023-02-02T07:27:43;20.35;;;6.82;;
52854;SDS011;38719;51.418;7.286;2023-02-02T07:30:12;20.20;;;6.68;;
52854;SDS011;38719;51.418;7.286;2023-02-02T07:32:44;20.23;;;7.60;;
52854;SDS011;38719;51.418;7.286;2023-02-02T07:35:14;23.60;;;6.93;;
52854;SDS011;38719;51.418;7.286;2023-02-02T07:37:42;19.48;;;6.82;;
52854;SDS011;38719;51.418;7.286;2023-02-02T07:40:10;19.75;;;6.78;;
52854;SDS011;38719;51.418;7.286;2023-02-02T07:42:38;25.45;;;7.50;;
52854;SDS011;38719;51.418;7.286;2023-02-02T07:45:05;26.60;;;7.50;;
52854;SDS011;38719;51.418;7.286;2023-02-02T07:47:56;21.95;;;7.43;;
52854;SDS011;38719;51.418;7.286;2023-02-02T07:50:26;20.00;;;7.88;;
52854;SDS011;38719;51.418;7.286;2023-02-02T07:52:57;22.70;;;8.05;;
52854;SDS011;38719;51.418;7.286;2023-02-02T07:55:24;16.83;;;7.53;;
52854;SDS011;38719;51.418;7.286;2023-02-02T07:57:52;29.88;;;7.38;;
52854;SDS011;38719;51.418;7.286;2023-02-02T08:00:24;21.25;;;7.65;;
52854;SDS011;38719;51.418;7.286;2023-02-02T08:02:52;24.58;;;8.63;;
52854;SDS011;38719;51.418;7.286;2023-02-02T08:05:20;23.05;;;7.55;;
52854;SDS011;38719;51.418;7.286;2023-02-02T08:07:49;20.60;;;7.85;;
52854;SDS011;38719;51.418;7.286;2023-02-02T08:10:17;16.80;;;6.95;;
52854;SDS011;38719;51.418;7.286;2023-02-02T08:12:44;18.80;;;7.55;;
52854;SDS011;38719;51.418;7.286;2023-02-02T08:15:12;20.17;;;7.00;;
52854;SDS011;38719;51.418;7.286;2023-02-02T08:17:43;18.05;;;8.63;;
52854;SDS011;38719;51.418;7.286;2023-02-02T08:20:11;22.23;;;8.15;;
52854;SDS011;38719;51.418;7.286;2023-02-02T08:22:39;23.23;;;8.13;;
52854;SDS011;38719;51.418;7.286;2023-02-02T08:25:08;22.15;;;7.78;;
52854;SDS011;38719;51.418;7.286;2023-02-02T08:27:36;22.27;;;7.50;;
52854;SDS011;38719;51.418;7.286;2023-02-02T08:30:04;22.67;;;8.02;;
52854;SDS011;38719;51.418;7.286;2023-02-02T08:32:32;30.48;;;8.07;;
52854;SDS011;38719;51.418;7.286;2023-02-02T08:34:59;23.58;;;8.40;;
52854;SDS011;38719;51.418;7.286;2023-02-02T08:37:27;28.38;;;7.50;;
52854;SDS011;38719;51.418;7.286;2023-02-02T08:39:54;15.38;;;7.82;;
52854;SDS011;38719;51.418;7.286;2023-02-02T08:42:23;20.23;;;7.68;;
52854;SDS011;38719;51.418;7.286;2023-02-02T08:44:51;26.95;;;9.10;;
52854;SDS011;38719;51.418;7.286;2023-02-02T08:47:38;15.88;;;7.20;;
52854;SDS011;38719;51.418;7.286;2023-02-02T08:50:07;17.00;;;7.95;;
52854;SDS011;38719;51.418;7.286;2023-02-02T08:52:36;19.73;;;7.32;;
52854;SDS011;38719;51.418;7.286;2023-02-02T08:55:04;19.80;;;7.88;;
52854;SDS011;38719;51.418;7.286;2023-02-02T08:57:34;25.17;;;7.68;;
52854;SDS011;38719;51.418;7.286;2023-02-02T09:00:02;16.23;;;7.32;;
52854;SDS011;38719;51.418;7.286;2023-02-02T09:02:30;15.18;;;7.30;;
52854;SDS011;38719;51.418;7.286;2023-02-02T09:04:57;20.38;;;7.38;;
52854;SDS011;38719;51.418;7.286;2023-02-02T09:07:25;18.85;;;7.55;;
52854;SDS011;38719;51.418;7.286;2023-02-02T09:09:52;26.98;;;7.05;;
52854;SDS011;38719;51.418;7.286;2023-02-02T09:12:23;18.00;;;6.82;;
52854;SDS011;38719;51.418;7.286;2023-02-02T09:14:52;18.30;;;6.97;;
52854;SDS011;38719;51.418;7.286;2023-02-02T09:17:19;22.60;;;6.90;;
52854;SDS011;38719;51.418;7.286;2023-02-02T09:19:47;14.15;;;7.05;;
52854;SDS011;38719;51.418;7.286;2023-02-02T09:22:14;16.08;;;6.65;;
52854;SDS011;38719;51.418;7.286;2023-02-02T09:24:42;13.65;;;7.38;;
52854;SDS011;38719;51.418;7.286;2023-02-02T09:27:09;20.55;;;8.68;;
52854;SDS011;38719;51.418;7.286;2023-02-02T09:29:37;20.40;;;7.30;;
52854;SDS011;38719;51.418;7.286;2023-02-02T09:32:06;16.08;;;7.40;;
52854;SDS011;38719;51.418;7.286;2023-02-02T09:34:34;17.42;;;6.90;;
52854;SDS011;38719;51.418;7.286;2023-02-02T09:37:01;11.63;;;7.03;;
52854;SDS011;38719;51.418;7.286;2023-02-02T09:39:29;18.05;;;7.43;;
52854;SDS011;38719;51.418;7.286;2023-02-02T09:42:04;16.05;;;7.47;;
52854;SDS011;38719;51.418;7.286;2023-02-02T09:44:52;13.27;;;7.05;;
52854;SDS011;38719;51.418;7.286;2023-02-02T09:47:30;14.38;;;7.07;;
52854;SDS011;38719;51.418;7.286;2023-02-02T09:50:09;12.98;;;7.13;;
52854;SDS011;38719;51.418;7.286;2023-02-02T09:52:45;15.13;;;7.90;;
52854;SDS011;38719;51.418;7.286;2023-02-02T09:55:28;14.15;;;7.13;;
52854;SDS011;38719;51.418;7.286;2023-02-02T09:58:00;16.98;;;8.10;;
52854;SDS011;38719;51.418;7.286;2023-02-02T10:00:36;16.90;;;8.20;;
52854;SDS011;38719;51.418;7.286;2023-02-02T10:03:11;17.58;;;7.68;;
52854;SDS011;38719;51.418;7.286;2023-02-02T10:05:44;17.65;;;7.57;;
52854;SDS011;38719;51.418;7.286;2023-02-02T10:08:20;17.00;;;8.30;;
52854;SDS011;38719;51.418;7.286;2023-02-02T10:11:01;16.85;;;8.35;;
52854;SDS011;38719;51.418;7.286;2023-02-02T10:13:32;12.93;;;7.03;;
52854;SDS011;38719;51.418;7.286;2023-02-02T10:16:05;18.20;;;8.60;;
52854;SDS011;38719;51.418;7.286;2023-02-02T10:18:40;15.90;;;8.77;;
52854;SDS011;38719;51.418;7.286;2023-02-02T10:21:16;20.92;;;10.15;;
52854;SDS011;38719;51.418;7.286;2023-02-02T10:23:50;29.95;;;13.30;;
52854;SDS011;38719;51.418;7.286;2023-02-02T10:26:20;22.42;;;12.32;;
52854;SDS011;38719;51.418;7.286;2023-02-02T10:29:02;26.27;;;13.80;;
52854;SDS011;38719;51.418;7.286;2023-02-02T10:31:40;26.35;;;15.15;;
52854;SDS011;38719;51.418;7.286;2023-02-02T10:34:14;38.33;;;15.88;;
52854;SDS011;38719;51.418;7.286;2023-02-02T10:36:46;42.08;;;15.75;;
52854;SDS011;38719;51.418;7.286;2023-02-02T10:39:24;37.20;;;13.82;;
52854;SDS011;38719;51.418;7.286;2023-02-02T10:42:03;31.33;;;14.10;;
52854;SDS011;38719;51.418;7.286;2023-02-02T10:44:41;25.25;;;12.88;;
52854;SDS011;38719;51.418;7.286;2023-02-02T10:47:15;28.00;;;12.98;;
52854;SDS011;38719;51.418;7.286;2023-02-02T10:49:53;21.08;;;12.43;;
52854;SDS011;38719;51.418;7.286;2023-02-02T10:52:28;29.45;;;12.77;;
52854;SDS011;38719;51.418;7.286;2023-02-02T10:55:02;26.65;;;12.18;;
52854;SDS011;38719;51.418;7.286;2023-02-02T10:57:38;22.73;;;11.80;;
52854;SDS011;38719;51.418;7.286;2023-02-02T11:00:18;29.23;;;11.60;;
52854;SDS011;38719;51.418;7.286;2023-02-02T11:02:50;28.50;;;11.95;;
52854;SDS011;38719;51.418;7.286;2023-02-02T11:05:21;32.30;;;10.82;;
52854;SDS011;38719;51.418;7.286;2023-02-02T11:08:12;32.47;;;11.75;;
52854;SDS011;38719;51.418;7.286;2023-02-02T11:10:42;22.30;;;10.27;;
52854;SDS011;38719;51.418;7.286;2023-02-02T11:13:13;25.50;;;10.18;;
52854;SDS011;38719;51.418;7.286;2023-02-02T11:15:45;29.02;;;10.63;;
52854;SDS011;38719;51.418;7.286;2023-02-02T11:18:13;33.47;;;10.65;;
52854;SDS011;38719;51.418;7.286;2023-02-02T11:20:54;31.92;;;9.35;;
52854;SDS011;38719;51.418;7.286;2023-02-02T11:23:22;24.55;;;10.68;;
52854;SDS011;38719;51.418;7.286;2023-02-02T11:25:57;30.77;;;10.70;;
52854;SDS011;38719;51.418;7.286;2023-02-02T11:28:26;29.50;;;10.20;;
52854;SDS011;38719;51.418;7.286;2023-02-02T11:31:01;26.05;;;9.02;;
52854;SDS011;38719;51.418;7.286;2023-02-02T11:33:29;23.92;;;10.02;;
52854;SDS011;38719;51.418;7.286;2023-02-02T11:36:01;31.23;;;9.88;;
52854;SDS011;38719;51.418;7.286;2023-02-02T11:38:31;29.08;;;9.95;;
52854;SDS011;38719;51.418;7.286;2023-02-02T11:40:59;22.10;;;9.40;;
52854;SDS011;38719;51.418;7.286;2023-02-02T11:43:30;26.17;;;9.13;;
52854;SDS011;38719;51.418;7.286;2023-02-02T11:46:06;23.15;;;9.13;;
52854;SDS011;38719;51.418;7.286;2023-02-02T11:48:46;26.08;;;9.65;;
52854;SDS011;38719;51.418;7.286;2023-02-02T11:51:21;17.50;;;9.77;;
52854;SDS011;38719;51.418;7.286;2023-02-02T11:53:59;26.13;;;9.40;;
52854;SDS011;38719;51.418;7.286;2023-02-02T11:56:29;22.38;;;9.07;;
52854;SDS011;38719;51.418;7.286;2023-02-02T11:58:56;29.25;;;9.02;;
52854;SDS011;38719;51.418;7.286;2023-02-02T12:01:30;21.02;;;8.82;;
52854;SDS011;38719;51.418;7.286;2023-02-02T12:03:59;18.75;;;9.18;;
52854;SDS011;38719;51.418;7.286;2023-02-02T12:06:34;22.33;;;9.57;;
52854;SDS011;38719;51.418;7.286;2023-02-02T12:09:11;29.88;;;10.48;;
52854;SDS011;38719;51.418;7.286;2023-02-02T12:11:42;23.17;;;8.68;;
52854;SDS011;38719;51.418;7.286;2023-02-02T12:14:25;22.23;;;9.05;;
52854;SDS011;38719;51.418;7.286;2023-02-02T12:17:01;28.83;;;8.57;;
52854;SDS011;38719;51.418;7.286;2023-02-02T12:19:46;18.92;;;7.90;;
52854;SDS011;38719;51.418;7.286;2023-02-02T12:25:22;22.80;;;7.85;;
52854;SDS011;38719;51.418;7.286;2023-02-02T12:28:12;18.60;;;8.85;;
52854;SDS011;38719;51.418;7.286;2023-02-02T12:30:52;24.95;;;8.02;;
52854;SDS011;38719;51.418;7.286;2023-02-02T12:33:28;24.48;;;7.65;;
52854;SDS011;38719;51.418;7.286;2023-02-02T12:36:07;19.48;;;7.60;;
52854;SDS011;38719;51.418;7.286;2023-02-02T12:39:01;19.92;;;7.90;;
52854;SDS011;38719;51.418;7.286;2023-02-02T12:41:38;19.27;;;7.28;;
52854;SDS011;38719;51.418;7.286;2023-02-02T12:46:58;13.98;;;6.90;;
52854;SDS011;38719;51.418;7.286;2023-02-02T12:49:38;19.00;;;6.97;;
52854;SDS011;38719;51.418;7.286;2023-02-02T12:52:23;18.45;;;6.93;;
52854;SDS011;38719;51.418;7.286;2023-02-02T12:55:08;18.75;;;6.70;;
52854;SDS011;38719;51.418;7.286;2023-02-02T12:57:46;26.35;;;7.78;;
52854;SDS011;38719;51.418;7.286;2023-02-02T13:00:22;15.27;;;7.68;;
52854;SDS011;38719;51.418;7.286;2023-02-02T13:03:20;15.05;;;6.57;;
52854;SDS011;38719;51.418;7.286;2023-02-02T13:08:54;16.67;;;6.82;;
52854;SDS011;38719;51.418;7.286;2023-02-02T13:11:33;18.95;;;7.60;;
52854;SDS011;38719;51.418;7.286;2023-02-02T13:14:06;24.58;;;6.88;;
52854;SDS011;38719;51.418;7.286;2023-02-02T13:16:38;18.92;;;7.53;;
52854;SDS011;38719;51.418;7.286;2023-02-02T13:19:10;21.73;;;8.40;;
52854;SDS011;38719;51.418;7.286;2023-02-02T13:21:41;12.57;;;7.22;;
52854;SDS011;38719;51.418;7.286;2023-02-02T13:24:11;20.52;;;7.43;;
52854;SDS011;38719;51.418;7.286;2023-02-02T13:26:43;18.92;;;6.88;;
52854;SDS011;38719;51.418;7.286;2023-02-02T13:29:17;21.23;;;7.50;;
52854;SDS011;38719;51.418;7.286;2023-02-02T13:31:55;24.42;;;8.95;;
52854;SDS011;38719;51.418;7.286;2023-02-02T13:34:26;20.25;;;8.57;;
52854;SDS011;38719;51.418;7.286;2023-02-02T13:37:02;21.33;;;7.88;;
52854;SDS011;38719;51.418;7.286;2023-02-02T13:39:37;19.75;;;7.78;;
52854;SDS011;38719;51.418;7.286;2023-02-02T13:42:12;18.15;;;7.32;;
52854;SDS011;38719;51.418;7.286;2023-02-02T13:44:52;19.85;;;6.82;;
52854;SDS011;38719;51.418;7.286;2023-02-02T13:47:25;14.98;;;6.25;;
52854;SDS011;38719;51.418;7.286;2023-02-02T13:49:58;16.75;;;7.63;;
52854;SDS011;38719;51.418;7.286;2023-02-02T13:52:39;22.05;;;7.30;;
52854;SDS011;38719;51.418;7.286;2023-02-02T13:55:28;21.00;;;7.38;;
52854;SDS011;38719;51.418;7.286;2023-02-02T13:58:18;25.67;;;7.63;;
52854;SDS011;38719;51.418;7.286;2023-02-02T14:00:58;17.52;;;7.15;;
52854;SDS011;38719;51.418;7.286;2023-02-02T14:03:33;15.70;;;6.60;;
52854;SDS011;38719;51.418;7.286;2023-02-02T14:06:05;20.70;;;7.15;;
52854;SDS011;38719;51.418;7.286;2023-02-02T14:08:36;24.42;;;8.90;;
52854;SDS011;38719;51.418;7.286;2023-02-02T14:11:14;12.77;;;7.10;;
52854;SDS011;38719;51.418;7.286;2023-02-02T14:13:47;16.85;;;7.10;;
52854;SDS011;38719;51.418;7.286;2023-02-02T14:16:42;22.15;;;8.35;;
52854;SDS011;38719;51.418;7.286;2023-02-02T14:19:15;21.95;;;7.88;;
52854;SDS011;38719;51.418;7.286;2023-02-02T14:21:57;26.80;;;8.52;;
52854;SDS011;38719;51.418;7.286;2023-02-02T14:24:37;22.80;;;9.68;;
52854;SDS011;38719;51.418;7.286;2023-02-02T14:35:59;20.27;;;11.45;;
52854;SDS011;38719;51.418;7.286;2023-02-02T14:41:40;20.60;;;10.48;;
52854;SDS011;38719;51.418;7.286;2023-02-02T14:47:48;18.23;;;10.02;;
52854;SDS011;38719;51.418;7.286;2023-02-02T14:50:21;19.77;;;9.45;;
52854;SDS011;38719;51.418;7.286;2023-02-02T14:53:02;23.92;;;9.98;;
52854;SDS011;38719;51.418;7.286;2023-02-02T14:55:34;18.30;;;10.43;;
52854;SDS011;38719;51.418;7.286;2023-02-02T14:58:04;17.50;;;11.25;;
52854;SDS011;38719;51.418;7.286;2023-02-02T15:00:33;24.73;;;13.18;;
52854;SDS011;38719;51.418;7.286;2023-02-02T15:03:32;21.40;;;13.32;;
52854;SDS011;38719;51.418;7.286;2023-02-02T15:06:02;26.15;;;13.52;;
52854;SDS011;38719;51.418;7.286;2023-02-02T15:08:33;29.83;;;14.85;;
52854;SDS011;38719;51.418;7.286;2023-02-02T15:11:05;31.00;;;16.75;;
52854;SDS011;38719;51.418;7.286;2023-02-02T15:13:56;32.20;;;16.55;;
52854;SDS011;38719;51.418;7.286;2023-02-02T15:16:32;36.40;;;17.73;;
52854;SDS011;38719;51.418;7.286;2023-02-02T15:19:05;37.38;;;15.77;;
52854;SDS011;38719;51.418;7.286;2023-02-02T15:21:40;30.48;;;16.23;;
52854;SDS011;38719;51.418;7.286;2023-02-02T15:24:16;36.70;;;14.75;;
52854;SDS011;38719;51.418;7.286;2023-02-02T15:26:47;31.77;;;15.52;;
52854;SDS011;38719;51.418;7.286;2023-02-02T15:29:21;37.42;;;16.23;;
52854;SDS011;38719;51.418;7.286;2023-02-02T15:31:58;32.60;;;15.00;;